createdAt,value
2017-06-09T00:01:21.767Z,18.1
2017-06-09T00:03:27.444Z,18.1
2017-06-09T00:04:30.636Z,18.1
2017-06-09T00:07:38.217Z,18.1
2017-06-09T00:08:40.984Z,18.1
2017-06-09T00:09:44.119Z,18.1
2017-06-09T00:10:47.005Z,18.1
2017-06-09T00:12:52.195Z,18
2017-06-09T00:14:58.245Z,18
2017-06-09T00:16:00.628Z,18
2017-06-09T00:17:03.400Z,18
2017-06-09T00:18:06.170Z,18
2017-06-09T00:20:12.285Z,18
2017-06-09T00:21:14.550Z,18
2017-06-09T00:22:17.319Z,18
2017-06-09T00:23:19.970Z,17.9
2017-06-09T00:24:22.855Z,18
2017-06-09T00:25:25.993Z,18
2017-06-09T00:26:28.377Z,18
2017-06-09T00:28:34.178Z,17.9
2017-06-09T00:29:37.069Z,18
2017-06-09T00:32:45.574Z,17.9
2017-06-09T00:34:50.873Z,18
2017-06-09T00:35:53.260Z,17.9
2017-06-09T00:36:56.146Z,17.9
2017-06-09T00:37:59.334Z,17.9
2017-06-09T00:39:01.719Z,17.8
2017-06-09T00:40:05.197Z,17.8
2017-06-09T00:42:09.990Z,17.7
2017-06-09T00:43:13.063Z,17.7
2017-06-09T00:44:15.951Z,17.7
2017-06-09T00:46:21.247Z,17.8
2017-06-09T00:47:24.134Z,17.8
2017-06-09T00:48:27.276Z,17.8
2017-06-09T00:49:29.662Z,17.8
2017-06-09T00:50:32.547Z,17.8
2017-06-09T00:51:34.929Z,17.8
2017-06-09T00:52:37.820Z,17.8
2017-06-09T00:53:40.957Z,17.8
2017-06-09T00:54:43.344Z,17.8
2017-06-09T00:56:49.143Z,17.8
2017-06-09T00:57:52.031Z,17.6
2017-06-09T01:01:00.365Z,17.6
2017-06-09T01:02:02.749Z,17.6
2017-06-09T01:03:05.651Z,17.5
2017-06-09T01:04:08.546Z,17.5
2017-06-09T01:06:14.144Z,17.3
2017-06-09T01:07:16.525Z,17.3
2017-06-09T01:09:22.208Z,17.3
2017-06-09T01:11:28.253Z,17.3
2017-06-09T01:13:33.194Z,17.3
2017-06-09T01:14:36.081Z,17.3
2017-06-09T01:15:38.968Z,17.3
2017-06-09T01:17:44.517Z,17.3
2017-06-09T01:19:50.390Z,17.2
2017-06-09T01:20:52.779Z,17.2
2017-06-09T01:21:55.672Z,17.2
2017-06-09T01:22:58.305Z,17.3
2017-06-09T01:24:01.192Z,17.3
2017-06-09T01:25:04.081Z,17.3
2017-06-09T01:26:06.347Z,17.3
2017-06-09T01:27:09.123Z,17.2
2017-06-09T01:28:12.313Z,17.2
2017-06-09T01:29:14.698Z,17.3
2017-06-09T01:32:23.048Z,17.3
2017-06-09T01:33:26.063Z,17.3
2017-06-09T01:34:28.947Z,17.3
2017-06-09T01:35:31.332Z,17.3
2017-06-09T01:37:37.134Z,17.3
2017-06-09T01:38:40.320Z,17.3
2017-06-09T01:39:42.706Z,17.3
2017-06-09T01:41:48.012Z,17.2
2017-06-09T01:42:51.477Z,17.1
2017-06-09T01:43:53.996Z,17.1
2017-06-09T01:47:02.204Z,17.1
2017-06-09T01:50:10.557Z,17.1
2017-06-09T01:51:12.882Z,17.1
2017-06-09T01:52:15.773Z,17.2
2017-06-09T01:53:18.661Z,17.2
2017-06-09T01:54:21.425Z,17.1
2017-06-09T01:55:24.569Z,17.1
2017-06-09T01:56:26.955Z,17.1
2017-06-09T01:57:29.842Z,17.1
2017-06-09T01:58:32.223Z,17.2
2017-06-09T01:59:34.990Z,17.2
2017-06-09T02:00:38.150Z,17.2
2017-06-09T02:01:40.539Z,17.2
2017-06-09T02:02:43.424Z,17.2
2017-06-09T02:05:51.980Z,17.2
2017-06-09T02:07:57.275Z,17.2
2017-06-09T02:10:02.578Z,17.1
2017-06-09T02:11:05.361Z,17
2017-06-09T02:12:08.136Z,17
2017-06-09T02:13:11.022Z,17
2017-06-09T02:14:13.788Z,16.9
2017-06-09T02:15:16.555Z,16.9
2017-06-09T02:16:19.695Z,16.8
2017-06-09T02:17:22.078Z,16.9
2017-06-09T02:18:24.967Z,16.9
2017-06-09T02:19:27.854Z,16.9
2017-06-09T02:20:30.240Z,16.9
2017-06-09T02:21:33.432Z,16.9
2017-06-09T02:22:35.819Z,17
2017-06-09T02:23:38.708Z,17
2017-06-09T02:25:44.005Z,17
2017-06-09T02:26:47.193Z,17
2017-06-09T02:27:49.580Z,16.9
2017-06-09T02:28:52.478Z,16.9
2017-06-09T02:30:57.775Z,16.9
2017-06-09T02:33:03.732Z,16.9
2017-06-09T02:34:06.159Z,16.9
2017-06-09T02:35:09.056Z,16.9
2017-06-09T02:37:14.352Z,17
2017-06-09T02:38:17.490Z,16.9
2017-06-09T02:40:22.551Z,16.9
2017-06-09T02:42:28.361Z,16.8
2017-06-09T02:44:34.416Z,16.8
2017-06-09T02:45:36.802Z,16.8
2017-06-09T02:46:39.687Z,16.8
2017-06-09T02:47:42.065Z,16.9
2017-06-09T02:48:44.950Z,16.9
2017-06-09T02:52:56.390Z,16.8
2017-06-09T02:53:59.361Z,16.8
2017-06-09T02:55:01.756Z,16.8
2017-06-09T02:57:07.066Z,16.8
2017-06-09T02:58:10.218Z,16.7
2017-06-09T03:00:15.400Z,16.7
2017-06-09T03:01:18.297Z,16.7
2017-06-09T03:02:20.686Z,16.7
2017-06-09T03:03:23.832Z,16.8
2017-06-09T03:04:26.269Z,16.6
2017-06-09T03:05:29.163Z,16.7
2017-06-09T03:06:31.936Z,16.6
2017-06-09T03:07:34.841Z,16.7
2017-06-09T03:08:37.485Z,16.7
2017-06-09T03:09:40.384Z,16.7
2017-06-09T03:11:45.683Z,16.7
2017-06-09T03:13:51.238Z,16.7
2017-06-09T03:14:54.133Z,16.7
2017-06-09T03:15:56.520Z,16.7
2017-06-09T03:16:59.412Z,16.7
2017-06-09T03:20:07.957Z,16.8
2017-06-09T03:21:10.353Z,16.8
2017-06-09T03:22:13.251Z,16.8
2017-06-09T03:23:16.148Z,16.8
2017-06-09T03:24:19.042Z,16.7
2017-06-09T03:25:21.683Z,16.7
2017-06-09T03:26:24.575Z,16.7
2017-06-09T03:27:26.963Z,16.6
2017-06-09T03:28:29.856Z,16.7
2017-06-09T03:31:38.319Z,16.7
2017-06-09T03:33:43.422Z,16.6
2017-06-09T03:34:46.315Z,16.6
2017-06-09T03:35:49.217Z,16.6
2017-06-09T03:36:52.362Z,16.6
2017-06-09T03:40:00.649Z,16.6
2017-06-09T03:41:03.038Z,16.6
2017-06-09T03:42:06.219Z,16.6
2017-06-09T03:43:08.608Z,16.6
2017-06-09T03:46:16.705Z,16.6
2017-06-09T03:47:19.849Z,16.6
2017-06-09T03:49:25.147Z,16.6
2017-06-09T03:52:33.613Z,16.6
2017-06-09T03:53:36.006Z,16.6
2017-06-09T03:54:38.909Z,16.7
2017-06-09T03:55:41.800Z,16.6
2017-06-09T03:58:50.200Z,16.6
2017-06-09T03:59:52.586Z,16.7
2017-06-09T04:00:55.480Z,16.7
2017-06-09T04:01:58.374Z,16.7
2017-06-09T04:03:01.264Z,16.6
2017-06-09T04:05:06.819Z,16.7
2017-06-09T04:07:12.015Z,16.8
2017-06-09T04:08:14.907Z,16.8
2017-06-09T04:10:20.965Z,16.9
2017-06-09T04:13:28.671Z,17
2017-06-09T04:16:37.645Z,17.1
2017-06-09T04:17:40.038Z,17.1
2017-06-09T04:18:42.936Z,17.1
2017-06-09T04:19:45.718Z,17.2
2017-06-09T04:20:48.610Z,17.2
2017-06-09T04:21:51.249Z,17.3
2017-06-09T04:23:57.060Z,17.3
2017-06-09T04:24:59.453Z,17.3
2017-06-09T04:26:02.348Z,17.3
2017-06-09T04:27:05.499Z,17.4
2017-06-09T04:28:07.889Z,17.4
2017-06-09T04:29:10.543Z,17.5
2017-06-09T04:30:13.936Z,17.5
2017-06-09T04:31:16.204Z,17.5
2017-06-09T04:36:30.878Z,17.7
2017-06-09T04:37:33.774Z,17.7
2017-06-09T04:38:36.046Z,17.7
2017-06-09T04:39:39.447Z,17.8
2017-06-09T04:40:41.833Z,17.8
2017-06-09T04:41:44.978Z,17.8
2017-06-09T04:43:50.778Z,17.8
2017-06-09T04:44:53.053Z,17.8
2017-06-09T04:48:02.021Z,18
2017-06-09T04:49:04.912Z,18
2017-06-09T04:50:07.807Z,18
2017-06-09T04:51:10.703Z,18
2017-06-09T04:54:19.054Z,18.1
2017-06-09T04:55:21.833Z,18
2017-06-09T04:56:24.730Z,18
2017-06-09T04:57:27.694Z,18
2017-06-09T04:58:30.510Z,18
2017-06-09T04:59:37.485Z,17.9
2017-06-09T05:00:36.353Z,17.9
2017-06-09T05:01:39.246Z,18
2017-06-09T05:03:44.549Z,18
2017-06-09T05:04:47.747Z,18
2017-06-09T05:05:50.644Z,18
2017-06-09T05:07:56.335Z,18
2017-06-09T05:08:59.234Z,18
2017-06-09T05:10:02.385Z,18
2017-06-09T05:12:07.686Z,18.1
2017-06-09T05:13:10.387Z,18.1
2017-06-09T05:15:16.599Z,18.1
2017-06-09T05:16:19.001Z,18.1
2017-06-09T05:18:24.762Z,18.1
2017-06-09T05:19:27.659Z,18.1
2017-06-09T05:20:30.807Z,18.1
2017-06-09T05:21:33.078Z,18.1
2017-06-09T05:23:38.766Z,18
2017-06-09T05:24:42.165Z,18.1
2017-06-09T05:26:48.101Z,18.1
2017-06-09T05:27:50.379Z,18.1
2017-06-09T05:28:53.282Z,18.1
2017-06-09T05:29:56.177Z,18.1
2017-06-09T05:30:58.958Z,18.1
2017-06-09T05:32:02.103Z,18.1
2017-06-09T05:33:04.996Z,18.2
2017-06-09T05:36:13.211Z,18.2
2017-06-09T05:37:16.355Z,18.3
2017-06-09T05:38:19.009Z,18.3
2017-06-09T05:39:21.787Z,18.3
2017-06-09T05:40:24.691Z,18.3
2017-06-09T05:41:27.586Z,18.3
2017-06-09T05:42:31.116Z,18.3
2017-06-09T05:43:33.506Z,18.3
2017-06-09T05:44:36.400Z,18.3
2017-06-09T05:45:39.175Z,18.3
2017-06-09T05:46:42.070Z,18.3
2017-06-09T05:47:45.218Z,18.3
2017-06-09T05:49:50.526Z,18.3
2017-06-09T05:50:53.424Z,18.3
2017-06-09T05:51:56.315Z,18.3
2017-06-09T05:52:59.459Z,18.3
2017-06-09T05:55:05.265Z,18.4
2017-06-09T05:56:07.660Z,18.5
2017-06-09T05:57:10.557Z,18.5
2017-06-09T05:58:13.756Z,18.5
2017-06-09T06:01:22.464Z,18.6
2017-06-09T06:02:25.362Z,18.8
2017-06-09T06:06:36.746Z,18.9
2017-06-09T06:08:42.551Z,19
2017-06-09T06:10:48.357Z,19
2017-06-09T06:13:57.326Z,19.1
2017-06-09T06:14:59.716Z,19.1
2017-06-09T06:16:02.609Z,19.2
2017-06-09T06:17:05.380Z,19.3
2017-06-09T06:18:08.657Z,19.3
2017-06-09T06:19:11.803Z,19.4
2017-06-09T06:20:14.197Z,19.4
2017-06-09T06:21:17.009Z,19.4
2017-06-09T06:23:23.218Z,19.4
2017-06-09T06:24:26.242Z,19.4
2017-06-09T06:25:29.138Z,19.4
2017-06-09T06:26:32.045Z,19.4
2017-06-09T06:27:34.937Z,19.6
2017-06-09T06:29:40.994Z,19.7
2017-06-09T06:30:43.385Z,19.8
2017-06-09T06:31:46.277Z,19.8
2017-06-09T06:32:49.054Z,19.9
2017-06-09T06:33:52.451Z,19.8
2017-06-09T06:34:56.221Z,19.9
2017-06-09T06:37:00.906Z,20
2017-06-09T06:39:06.712Z,20
2017-06-09T06:40:10.112Z,20
2017-06-09T06:41:13.003Z,20.1
2017-06-09T06:42:15.897Z,20.1
2017-06-09T06:43:18.672Z,20.1
2017-06-09T06:44:21.447Z,20.2
2017-06-09T06:46:27.254Z,20.2
2017-06-09T06:47:30.151Z,20.2
2017-06-09T06:48:33.429Z,20.2
2017-06-09T06:50:39.230Z,20.3
2017-06-09T06:52:45.034Z,20.3
2017-06-09T06:54:50.853Z,20.3
2017-06-09T06:55:53.748Z,20.4
2017-06-09T06:56:56.642Z,20.5
2017-06-09T06:57:59.535Z,20.5
2017-06-09T06:59:02.932Z,20.5
2017-06-09T07:00:05.705Z,20.6
2017-06-09T07:01:08.358Z,20.6
2017-06-09T07:03:14.549Z,20.5
2017-06-09T07:04:17.324Z,20.5
2017-06-09T07:05:20.216Z,20.5
2017-06-09T07:07:26.526Z,20.6
2017-06-09T07:08:29.423Z,20.6
2017-06-09T07:09:32.319Z,20.7
2017-06-09T07:10:35.211Z,20.6
2017-06-09T07:11:38.104Z,20.6
2017-06-09T07:12:41.003Z,20.7
2017-06-09T07:14:47.066Z,20.8
2017-06-09T07:15:49.958Z,20.8
2017-06-09T07:16:52.849Z,20.9
2017-06-09T07:17:56.003Z,20.8
2017-06-09T07:18:58.910Z,20.8
2017-06-09T07:22:07.879Z,20.8
2017-06-09T07:24:13.574Z,20.9
2017-06-09T07:27:23.106Z,21.1
2017-06-09T07:28:25.503Z,21
2017-06-09T07:29:28.973Z,21.1
2017-06-09T07:30:31.936Z,21.1
2017-06-09T07:31:34.328Z,21.1
2017-06-09T07:32:37.984Z,21.2
2017-06-09T07:33:40.254Z,21.2
2017-06-09T07:34:43.649Z,21.3
2017-06-09T07:35:46.546Z,21.3
2017-06-09T07:36:49.440Z,21.4
2017-06-09T07:37:52.705Z,21.5
2017-06-09T07:38:55.480Z,21.6
2017-06-09T07:39:58.369Z,21.6
2017-06-09T07:41:01.261Z,21.6
2017-06-09T07:43:07.321Z,21.6
2017-06-09T07:44:10.212Z,21.6
2017-06-09T07:45:13.106Z,21.6
2017-06-09T07:47:19.425Z,21.8
2017-06-09T07:48:22.570Z,21.7
2017-06-09T07:49:24.960Z,21.6
2017-06-09T07:51:31.146Z,21.7
2017-06-09T07:52:34.036Z,21.7
2017-06-09T07:53:37.824Z,21.7
2017-06-09T07:55:43.130Z,21.6
2017-06-09T07:57:48.943Z,21.5
2017-06-09T07:58:52.649Z,21.5
2017-06-09T07:59:54.922Z,21.7
2017-06-09T08:02:01.240Z,21.7
2017-06-09T08:03:04.130Z,21.7
2017-06-09T08:04:07.279Z,21.6
2017-06-09T08:06:13.537Z,21.8
2017-06-09T08:07:15.932Z,22
2017-06-09T08:08:19.330Z,22.1
2017-06-09T08:10:25.268Z,22.4
2017-06-09T08:11:28.167Z,22.5
2017-06-09T08:12:31.060Z,22.5
2017-06-09T08:13:33.839Z,22.5
2017-06-09T08:15:40.397Z,22.3
2017-06-09T08:17:46.197Z,22.4
2017-06-09T08:18:49.089Z,22.3
2017-06-09T08:21:58.446Z,22.3
2017-06-09T08:23:01.340Z,22.4
2017-06-09T08:24:04.229Z,22.3
2017-06-09T08:25:07.122Z,22.5
2017-06-09T08:27:13.730Z,22.6
2017-06-09T08:28:16.124Z,22.7
2017-06-09T08:29:19.520Z,22.8
2017-06-09T08:30:22.410Z,22.8
2017-06-09T08:34:34.793Z,23
2017-06-09T08:35:37.197Z,23
2017-06-09T08:36:40.592Z,23.1
2017-06-09T08:37:43.488Z,23.1
2017-06-09T08:38:46.261Z,23.1
2017-06-09T08:39:49.959Z,23
2017-06-09T08:40:52.347Z,23.1
2017-06-09T08:41:56.318Z,23
2017-06-09T08:42:58.709Z,23.1
2017-06-09T08:44:01.619Z,23.1
2017-06-09T08:45:04.771Z,23.2
2017-06-09T08:48:13.490Z,23.3
2017-06-09T08:50:20.051Z,23.4
2017-06-09T08:51:22.480Z,23.4
2017-06-09T08:53:28.797Z,23.4
2017-06-09T08:54:31.448Z,23.3
2017-06-09T08:56:37.889Z,23.3
2017-06-09T08:58:43.580Z,23.3
2017-06-09T08:59:46.981Z,23.5
2017-06-09T09:00:49.873Z,23.5
2017-06-09T09:01:53.590Z,23.3
2017-06-09T09:03:58.891Z,23.4
2017-06-09T09:06:05.083Z,23.4
2017-06-09T09:07:08.228Z,23.3
2017-06-09T09:08:11.118Z,23.3
2017-06-09T09:09:14.011Z,23.3
2017-06-09T09:10:17.407Z,23.2
2017-06-09T09:12:23.396Z,23.3
2017-06-09T09:14:29.202Z,23.3
2017-06-09T09:19:44.658Z,23.8
2017-06-09T09:20:47.549Z,23.8
2017-06-09T09:21:50.327Z,23.8
2017-06-09T09:22:53.725Z,24
2017-06-09T09:23:57.079Z,24
2017-06-09T09:24:59.719Z,24
2017-06-09T09:26:02.495Z,24
2017-06-09T09:27:05.896Z,24
2017-06-09T09:28:08.793Z,24
2017-06-09T09:29:11.688Z,24
2017-06-09T09:30:15.382Z,24.1
2017-06-09T09:31:17.769Z,24.2
2017-06-09T09:33:24.082Z,24.2
2017-06-09T09:34:26.976Z,24.2
2017-06-09T09:35:30.503Z,24.1
2017-06-09T09:37:36.310Z,24.3
2017-06-09T09:38:39.207Z,24.4
2017-06-09T09:40:45.648Z,24.4
2017-06-09T09:42:51.459Z,24.3
2017-06-09T09:43:54.855Z,24.1
2017-06-09T09:44:57.748Z,24.2
2017-06-09T09:46:01.157Z,24.3
2017-06-09T09:47:03.938Z,24.3
2017-06-09T09:48:06.834Z,24.3
2017-06-09T09:49:10.119Z,24.3
2017-06-09T09:50:12.893Z,24.3
2017-06-09T09:52:19.456Z,24.3
2017-06-09T09:53:22.355Z,24.3
2017-06-09T09:54:25.248Z,24.3
2017-06-09T09:55:28.680Z,24.3
2017-06-09T09:59:41.114Z,24.3
2017-06-09T10:02:49.829Z,24.3
2017-06-09T10:03:53.227Z,24.4
2017-06-09T10:05:59.671Z,24.3
2017-06-09T10:07:02.453Z,24.3
2017-06-09T10:08:05.227Z,24.3
2017-06-09T10:09:08.509Z,24.3
2017-06-09T10:10:11.285Z,24.3
2017-06-09T10:14:24.173Z,24.4
2017-06-09T10:15:27.066Z,24.3
2017-06-09T10:16:29.968Z,24.3
2017-06-09T10:18:36.814Z,24.3
2017-06-09T10:20:42.929Z,24.3
2017-06-09T10:21:45.326Z,24.3
2017-06-09T10:22:48.600Z,24.3
2017-06-09T10:23:51.494Z,24.2
2017-06-09T10:24:54.891Z,24.1
2017-06-09T10:27:00.951Z,24.2
2017-06-09T10:30:10.048Z,24.2
2017-06-09T10:31:12.822Z,24.1
2017-06-09T10:32:16.523Z,24.1
2017-06-09T10:34:22.208Z,24.1
2017-06-09T10:35:24.986Z,24.1
2017-06-09T10:37:31.599Z,24
2017-06-09T10:38:34.375Z,24.1
2017-06-09T10:39:37.272Z,24.1
2017-06-09T10:40:40.173Z,24.1
2017-06-09T10:41:43.456Z,24.2
2017-06-09T10:42:46.484Z,24.2
2017-06-09T10:43:49.376Z,24.3
2017-06-09T10:44:52.024Z,24.3
2017-06-09T10:45:55.303Z,24.4
2017-06-09T10:46:58.198Z,24.3
2017-06-09T10:48:01.853Z,24.3
2017-06-09T10:49:04.629Z,24.4
2017-06-09T10:50:07.525Z,24.4
2017-06-09T10:51:10.299Z,24.4
2017-06-09T10:53:16.858Z,24.5
2017-06-09T10:54:19.753Z,24.5
2017-06-09T10:55:23.226Z,24.5
2017-06-09T10:56:25.614Z,24.5
2017-06-09T10:57:28.505Z,24.6
2017-06-09T10:58:31.647Z,24.6
2017-06-09T11:00:37.491Z,24.6
2017-06-09T11:01:40.896Z,24.6
2017-06-09T11:03:46.958Z,24.6
2017-06-09T11:04:49.850Z,24.6
2017-06-09T11:05:52.743Z,24.6
2017-06-09T11:06:55.635Z,24.6
2017-06-09T11:09:02.199Z,24.8
2017-06-09T11:12:10.920Z,24.8
2017-06-09T11:13:13.814Z,24.7
2017-06-09T11:14:17.010Z,24.8
2017-06-09T11:15:19.903Z,24.8
2017-06-09T11:16:22.796Z,24.8
2017-06-09T11:17:26.069Z,24.8
2017-06-09T11:18:28.963Z,24.8
2017-06-09T11:19:32.154Z,24.9
2017-06-09T11:20:34.924Z,24.9
2017-06-09T11:22:41.230Z,24.8
2017-06-09T11:23:44.006Z,24.9
2017-06-09T11:24:47.539Z,25
2017-06-09T11:25:49.940Z,24.9
2017-06-09T11:26:53.338Z,25
2017-06-09T11:27:56.112Z,24.9
2017-06-09T11:30:02.331Z,25
2017-06-09T11:31:05.226Z,25
2017-06-09T11:32:08.117Z,25
2017-06-09T11:34:14.308Z,25
2017-06-09T11:35:17.453Z,25
2017-06-09T11:36:20.343Z,25
2017-06-09T11:37:23.253Z,25
2017-06-09T11:38:26.527Z,25
2017-06-09T11:39:29.419Z,25
2017-06-09T11:42:38.770Z,25
2017-06-09T11:45:47.484Z,25.1
2017-06-09T11:47:54.043Z,25.2
2017-06-09T11:48:56.813Z,25.2
2017-06-09T11:52:06.045Z,25.1
2017-06-09T11:53:09.125Z,25.1
2017-06-09T11:54:11.897Z,25.2
2017-06-09T11:55:14.790Z,25.1
2017-06-09T11:57:21.102Z,25.3
2017-06-09T11:58:24.240Z,25.4
2017-06-09T11:59:27.133Z,25.4
2017-06-09T12:00:30.027Z,25.4
2017-06-09T12:01:32.917Z,25.4
2017-06-09T12:02:36.195Z,25.4
2017-06-09T12:03:39.722Z,25.4
2017-06-09T12:04:41.987Z,25.4
2017-06-09T12:07:51.593Z,25.3
2017-06-09T12:08:54.732Z,25.3
2017-06-09T12:09:57.622Z,25.3
2017-06-09T12:11:00.512Z,25.3
2017-06-09T12:12:03.404Z,25.3
2017-06-09T12:13:06.799Z,25.3
2017-06-09T12:14:09.940Z,25.4
2017-06-09T12:15:12.831Z,25.3
2017-06-09T12:16:15.723Z,25.3
2017-06-09T12:18:21.792Z,25.3
2017-06-09T12:19:25.369Z,25.2
2017-06-09T12:20:27.637Z,25.3
2017-06-09T12:21:30.915Z,25.3
2017-06-09T12:23:37.101Z,25.5
2017-06-09T12:24:40.130Z,25.5
2017-06-09T12:25:42.900Z,25.5
2017-06-09T12:26:46.174Z,25.5
2017-06-09T12:27:49.065Z,25.5
2017-06-09T12:29:55.681Z,25.5
2017-06-09T12:30:58.350Z,25.6
2017-06-09T12:32:01.241Z,25.6
2017-06-09T12:34:07.548Z,25.7
2017-06-09T12:35:10.695Z,25.8
2017-06-09T12:36:13.586Z,25.7
2017-06-09T12:37:16.482Z,25.7
2017-06-09T12:38:19.636Z,25.6
2017-06-09T12:39:23.028Z,25.6
2017-06-09T12:40:26.050Z,25.5
2017-06-09T12:41:28.946Z,25.5
2017-06-09T12:42:31.840Z,25.5
2017-06-09T12:43:35.234Z,25.4
2017-06-09T12:44:38.128Z,25.5
2017-06-09T12:45:41.320Z,25.5
2017-06-09T12:46:44.217Z,25.6
2017-06-09T12:47:47.117Z,25.8
2017-06-09T12:48:50.398Z,25.8
2017-06-09T12:51:59.756Z,25.8
2017-06-09T12:54:05.558Z,25.6
2017-06-09T12:55:08.211Z,25.6
2017-06-09T12:56:11.607Z,25.7
2017-06-09T12:58:18.218Z,25.8
2017-06-09T12:59:20.606Z,25.8
2017-06-09T13:00:24.004Z,25.8
2017-06-09T13:01:26.895Z,25.7
2017-06-09T13:02:29.790Z,25.6
2017-06-09T13:03:33.319Z,25.8
2017-06-09T13:04:36.090Z,25.8
2017-06-09T13:05:39.370Z,25.7
2017-06-09T13:06:42.140Z,25.6
2017-06-09T13:08:48.706Z,25.6
2017-06-09T13:10:54.514Z,25.6
2017-06-09T13:11:57.286Z,25.8
2017-06-09T13:13:00.686Z,25.7
2017-06-09T13:14:04.299Z,25.7
2017-06-09T13:15:06.570Z,25.6
2017-06-09T13:17:12.805Z,25.6
2017-06-09T13:18:15.700Z,25.6
2017-06-09T13:20:22.140Z,25.7
2017-06-09T13:21:25.033Z,25.8
2017-06-09T13:23:30.844Z,25.8
2017-06-09T13:25:37.405Z,25.8
2017-06-09T13:26:40.299Z,25.8
2017-06-09T13:28:46.101Z,25.8
2017-06-09T13:29:50.089Z,25.8
2017-06-09T13:30:52.734Z,25.9
2017-06-09T13:31:55.630Z,25.8
2017-06-09T13:32:58.520Z,25.8
2017-06-09T13:34:01.413Z,25.7
2017-06-09T13:35:04.814Z,25.7
2017-06-09T13:36:07.889Z,25.7
2017-06-09T13:37:10.784Z,25.8
2017-06-09T13:40:20.000Z,25.7
2017-06-09T13:42:26.495Z,25.8
2017-06-09T13:43:28.880Z,25.8
2017-06-09T13:45:35.188Z,26
2017-06-09T13:46:38.089Z,25.9
2017-06-09T13:47:41.233Z,26
2017-06-09T13:48:44.003Z,26
2017-06-09T13:49:47.404Z,26
2017-06-09T13:50:50.294Z,26
2017-06-09T13:51:53.065Z,26
2017-06-09T13:52:56.598Z,26
2017-06-09T13:53:59.560Z,26
2017-06-09T13:55:02.454Z,26
2017-06-09T13:56:05.857Z,26
2017-06-09T13:57:08.621Z,26.1
2017-06-09T13:58:12.229Z,26
2017-06-09T13:59:14.618Z,26
2017-06-09T14:00:18.011Z,25.9
2017-06-09T14:01:20.906Z,25.9
2017-06-09T14:03:27.467Z,25.9
2017-06-09T14:04:29.856Z,25.9
2017-06-09T14:05:33.255Z,25.9
2017-06-09T14:06:36.026Z,25.9
2017-06-09T14:07:39.418Z,26
2017-06-09T14:08:42.567Z,26
2017-06-09T14:09:45.339Z,26
2017-06-09T14:10:48.248Z,26
2017-06-09T14:11:51.154Z,26
2017-06-09T14:12:55.137Z,25.9
2017-06-09T14:13:57.708Z,25.8
2017-06-09T14:15:00.607Z,25.8
2017-06-09T14:16:03.499Z,25.9
2017-06-09T14:17:06.902Z,26
2017-06-09T14:18:09.792Z,26
2017-06-09T14:20:15.897Z,26
2017-06-09T14:21:18.675Z,26.1
2017-06-09T14:23:24.993Z,26.1
2017-06-09T14:24:27.883Z,26
2017-06-09T14:26:34.500Z,26
2017-06-09T14:27:37.396Z,26
2017-06-09T14:28:40.167Z,26
2017-06-09T14:29:44.016Z,26
2017-06-09T14:30:46.406Z,26
2017-06-09T14:31:49.605Z,25.9
2017-06-09T14:32:52.498Z,25.9
2017-06-09T14:34:58.308Z,25.9
2017-06-09T14:36:01.583Z,25.9
2017-06-09T14:38:08.196Z,25.9
2017-06-09T14:39:10.588Z,25.9
2017-06-09T14:41:16.895Z,25.9
2017-06-09T14:42:19.791Z,26
2017-06-09T14:43:22.812Z,25.9
2017-06-09T14:44:26.210Z,26
2017-06-09T14:45:29.100Z,26
2017-06-09T14:46:32.569Z,26
2017-06-09T14:47:34.959Z,25.9
2017-06-09T14:48:38.661Z,26
2017-06-09T14:49:41.624Z,26
2017-06-09T14:50:44.518Z,26
2017-06-09T14:51:47.407Z,26
2017-06-09T14:52:50.304Z,26
2017-06-09T14:55:59.836Z,26
2017-06-09T14:57:02.728Z,26
2017-06-09T14:58:05.620Z,26
2017-06-09T15:01:15.664Z,26
2017-06-09T15:03:20.851Z,26.1
2017-06-09T15:04:23.745Z,26.1
2017-06-09T15:05:27.139Z,26
2017-06-09T15:06:30.213Z,26
2017-06-09T15:07:32.986Z,26
2017-06-09T15:08:36.390Z,26
2017-06-09T15:10:42.195Z,26
2017-06-09T15:11:45.347Z,26
2017-06-09T15:13:51.150Z,26
2017-06-09T15:14:54.624Z,26
2017-06-09T15:15:57.395Z,26
2017-06-09T15:17:01.090Z,26
2017-06-09T15:18:03.361Z,26
2017-06-09T15:19:06.760Z,26
2017-06-09T15:20:09.536Z,26
2017-06-09T15:21:12.932Z,26.1
2017-06-09T15:22:16.076Z,26.1
2017-06-09T15:23:18.856Z,26
2017-06-09T15:26:28.083Z,26
2017-06-09T15:28:34.147Z,26
2017-06-09T15:29:36.798Z,26
2017-06-09T15:30:40.076Z,26
2017-06-09T15:31:43.363Z,26
2017-06-09T15:32:46.139Z,26
2017-06-09T15:33:49.786Z,26
2017-06-09T15:34:52.175Z,26
2017-06-09T15:35:55.570Z,26
2017-06-09T15:36:58.461Z,26
2017-06-09T15:38:01.353Z,26
2017-06-09T15:39:04.998Z,26
2017-06-09T15:40:07.270Z,26
2017-06-09T15:41:10.668Z,26
2017-06-09T15:42:13.562Z,26
2017-06-09T15:44:20.005Z,26
2017-06-09T15:45:22.904Z,26
2017-06-09T15:47:28.603Z,25.9
2017-06-09T15:48:31.999Z,25.9
2017-06-09T15:50:38.107Z,25.9
2017-06-09T15:52:43.793Z,25.9
2017-06-09T15:53:47.188Z,25.9
2017-06-09T15:54:50.081Z,25.8
2017-06-09T15:55:53.278Z,25.8
2017-06-09T15:56:56.168Z,25.8
2017-06-09T16:01:08.481Z,25.8
2017-06-09T16:03:14.288Z,25.7
2017-06-09T16:04:17.563Z,25.6
2017-06-09T16:05:20.456Z,25.6
2017-06-09T16:06:23.599Z,25.6
2017-06-09T16:07:26.496Z,25.6
2017-06-09T16:09:32.301Z,25.6
2017-06-09T16:10:35.696Z,25.5
2017-06-09T16:11:38.908Z,25.5
2017-06-09T16:14:47.623Z,25.4
2017-06-09T16:16:53.686Z,25.4
2017-06-09T16:17:56.575Z,25.4
2017-06-09T16:18:59.470Z,25.4
2017-06-09T16:20:02.751Z,25.4
2017-06-09T16:21:05.641Z,25.5
2017-06-09T16:22:08.804Z,25.5
2017-06-09T16:23:11.701Z,25.4
2017-06-09T16:24:14.596Z,25.3
2017-06-09T16:27:24.065Z,25.2
2017-06-09T16:30:32.793Z,25.1
2017-06-09T16:35:48.145Z,25.2
2017-06-09T16:36:50.918Z,25.1
2017-06-09T16:37:53.811Z,25.1
2017-06-09T16:38:56.711Z,25.1
2017-06-09T16:39:59.606Z,25.1
2017-06-09T16:42:06.045Z,25
2017-06-09T16:43:08.945Z,25
2017-06-09T16:44:11.715Z,25
2017-06-09T16:45:14.617Z,25
2017-06-09T16:46:18.015Z,25
2017-06-09T16:47:21.164Z,25
2017-06-09T16:48:24.060Z,25
2017-06-09T16:49:26.834Z,25
2017-06-09T16:52:35.813Z,24.8
2017-06-09T16:53:38.709Z,24.9
2017-06-09T16:54:41.601Z,24.9
2017-06-09T16:55:44.499Z,24.8
2017-06-09T16:56:47.901Z,24.5
2017-06-09T16:57:50.982Z,24.5
2017-06-09T16:58:53.877Z,24.3
2017-06-09T16:59:56.769Z,24.3
2017-06-09T17:00:59.692Z,24.3
2017-06-09T17:02:02.588Z,24.3
2017-06-09T17:03:05.782Z,24.3
2017-06-09T17:04:08.435Z,24.3
2017-06-09T17:05:11.211Z,24.4
2017-06-09T17:06:14.613Z,24.4
2017-06-09T17:08:20.719Z,24.4
2017-06-09T17:09:23.121Z,24.4
2017-06-09T17:10:26.011Z,24.5
2017-06-09T17:11:29.408Z,24.5
2017-06-09T17:12:32.180Z,24.5
2017-06-09T17:14:38.236Z,24.5
2017-06-09T17:15:41.014Z,24.5
2017-06-09T17:17:46.818Z,24.5
2017-06-09T17:18:49.709Z,24.5
2017-06-09T17:19:53.367Z,24.5
2017-06-09T17:21:58.672Z,24.4
2017-06-09T17:23:01.573Z,24.3
2017-06-09T17:24:04.346Z,24.3
2017-06-09T17:26:10.915Z,24.2
2017-06-09T17:27:13.894Z,24.2
2017-06-09T17:28:16.284Z,24.3
2017-06-09T17:29:19.686Z,24.3
2017-06-09T17:30:22.584Z,24.3
2017-06-09T17:31:25.658Z,24.2
2017-06-09T17:32:28.551Z,24.2
2017-06-09T17:33:31.452Z,24.2
2017-06-09T17:36:40.423Z,24.1
2017-06-09T17:37:42.811Z,24
2017-06-09T17:38:46.207Z,24.1
2017-06-09T17:39:49.101Z,24
2017-06-09T17:40:51.993Z,24
2017-06-09T17:41:55.139Z,24
2017-06-09T17:42:57.793Z,24
2017-06-09T17:44:00.684Z,24
2017-06-09T17:45:03.457Z,23.9
2017-06-09T17:46:06.351Z,23.9
2017-06-09T17:47:09.385Z,23.9
2017-06-09T17:48:12.279Z,24
2017-06-09T17:49:15.171Z,23.9
2017-06-09T17:50:18.072Z,23.9
2017-06-09T17:52:24.133Z,23.8
2017-06-09T17:53:27.031Z,23.8
2017-06-09T17:54:29.924Z,23.8
2017-06-09T17:55:32.892Z,23.7
2017-06-09T17:58:41.910Z,23.5
2017-06-09T18:00:47.701Z,23.5
2017-06-09T18:02:53.518Z,23.5
2017-06-09T18:03:57.258Z,23.5
2017-06-09T18:04:59.146Z,23.6
2017-06-09T18:07:04.959Z,23.6
2017-06-09T18:08:07.734Z,23.6
2017-06-09T18:10:14.184Z,23.6
2017-06-09T18:11:16.577Z,23.5
2017-06-09T18:12:19.554Z,23.5
2017-06-09T18:13:22.693Z,23.5
2017-06-09T18:14:25.147Z,23.5
2017-06-09T18:16:31.488Z,23.5
2017-06-09T18:17:34.302Z,23.5
2017-06-09T18:18:37.598Z,23.5
2017-06-09T18:20:42.736Z,23.4
2017-06-09T18:21:45.804Z,23.4
2017-06-09T18:24:54.669Z,23.3
2017-06-09T18:27:00.601Z,23.2
2017-06-09T18:28:02.873Z,23.2
2017-06-09T18:29:05.927Z,23.3
2017-06-09T18:30:09.303Z,23.3
2017-06-09T18:31:12.018Z,23.3
2017-06-09T18:32:15.125Z,23.3
2017-06-09T18:33:18.665Z,23.4
2017-06-09T18:34:20.743Z,23.4
2017-06-09T18:35:23.384Z,23.4
2017-06-09T18:36:26.595Z,23.3
2017-06-09T18:37:29.706Z,23.4
2017-06-09T18:39:35.206Z,23.3
2017-06-09T18:41:41.193Z,23.4
2017-06-09T18:42:44.477Z,23.4
2017-06-09T18:43:47.215Z,23.4
2017-06-09T18:44:50.365Z,23.4
2017-06-09T18:45:52.875Z,23.4